sensor_id;sensor_type;location;lat;lon;timestamp;P1;durP1;ratioP1;P2;durP2;ratioP2
6566;SDS011;3317;43.994;22.878;2022-09-12T00:00:51;5.87;;;1.40;;
6566;SDS011;3317;43.994;22.878;2022-09-12T00:03:18;5.77;;;1.63;;
6566;SDS011;3317;43.994;22.878;2022-09-12T00:05:45;2.67;;;1.50;;
6566;SDS011;3317;43.994;22.878;2022-09-12T00:08:13;1.60;;;1.20;;
6566;SDS011;3317;43.994;22.878;2022-09-12T00:10:41;2.40;;;1.67;;
6566;SDS011;3317;43.994;22.878;2022-09-12T00:13:09;2.07;;;1.20;;
6566;SDS011;3317;43.994;22.878;2022-09-12T00:15:37;1.40;;;1.10;;
6566;SDS011;3317;43.994;22.878;2022-09-12T00:18:07;2.27;;;1.30;;
6566;SDS011;3317;43.994;22.878;2022-09-12T00:20:35;3.07;;;1.40;;
6566;SDS011;3317;43.994;22.878;2022-09-12T00:23:07;1.83;;;1.37;;
6566;SDS011;3317;43.994;22.878;2022-09-12T00:25:38;2.90;;;1.50;;
6566;SDS011;3317;43.994;22.878;2022-09-12T00:28:06;2.53;;;1.60;;
6566;SDS011;3317;43.994;22.878;2022-09-12T00:30:33;2.43;;;1.83;;
6566;SDS011;3317;43.994;22.878;2022-09-12T00:33:08;2.13;;;1.33;;
6566;SDS011;3317;43.994;22.878;2022-09-12T00:35:39;1.40;;;1.30;;
6566;SDS011;3317;43.994;22.878;2022-09-12T00:38:07;2.23;;;1.30;;
6566;SDS011;3317;43.994;22.878;2022-09-12T00:40:34;2.03;;;1.53;;
6566;SDS011;3317;43.994;22.878;2022-09-12T00:43:01;2.20;;;1.37;;
6566;SDS011;3317;43.994;22.878;2022-09-12T00:45:28;3.43;;;1.40;;
6566;SDS011;3317;43.994;22.878;2022-09-12T00:47:57;3.00;;;1.37;;
6566;SDS011;3317;43.994;22.878;2022-09-12T00:50:28;2.00;;;1.40;;
6566;SDS011;3317;43.994;22.878;2022-09-12T00:52:59;6.70;;;1.30;;
6566;SDS011;3317;43.994;22.878;2022-09-12T00:55:31;2.73;;;1.40;;
6566;SDS011;3317;43.994;22.878;2022-09-12T00:58:02;3.63;;;1.60;;
6566;SDS011;3317;43.994;22.878;2022-09-12T01:00:34;2.40;;;1.60;;
6566;SDS011;3317;43.994;22.878;2022-09-12T01:03:02;1.73;;;1.50;;
6566;SDS011;3317;43.994;22.878;2022-09-12T01:05:35;3.03;;;1.50;;
6566;SDS011;3317;43.994;22.878;2022-09-12T01:08:08;2.23;;;1.30;;
6566;SDS011;3317;43.994;22.878;2022-09-12T01:10:36;2.00;;;1.50;;
6566;SDS011;3317;43.994;22.878;2022-09-12T01:13:05;1.40;;;1.13;;
6566;SDS011;3317;43.994;22.878;2022-09-12T01:15:35;1.60;;;1.30;;
6566;SDS011;3317;43.994;22.878;2022-09-12T01:18:06;2.57;;;1.40;;
6566;SDS011;3317;43.994;22.878;2022-09-12T01:20:59;2.17;;;1.43;;
6566;SDS011;3317;43.994;22.878;2022-09-12T01:23:44;1.47;;;1.20;;
6566;SDS011;3317;43.994;22.878;2022-09-12T01:26:39;2.97;;;1.67;;
6566;SDS011;3317;43.994;22.878;2022-09-12T01:29:27;3.40;;;1.87;;
6566;SDS011;3317;43.994;22.878;2022-09-12T01:32:11;3.17;;;1.50;;
6566;SDS011;3317;43.994;22.878;2022-09-12T01:34:48;3.33;;;1.53;;
6566;SDS011;3317;43.994;22.878;2022-09-12T01:37:21;2.93;;;1.60;;
6566;SDS011;3317;43.994;22.878;2022-09-12T01:39:58;1.80;;;1.50;;
6566;SDS011;3317;43.994;22.878;2022-09-12T01:42:31;1.93;;;1.67;;
6566;SDS011;3317;43.994;22.878;2022-09-12T01:45:08;3.17;;;1.60;;
6566;SDS011;3317;43.994;22.878;2022-09-12T01:47:46;2.10;;;1.53;;
6566;SDS011;3317;43.994;22.878;2022-09-12T01:50:17;2.50;;;1.60;;
6566;SDS011;3317;43.994;22.878;2022-09-12T01:52:47;2.80;;;1.57;;
6566;SDS011;3317;43.994;22.878;2022-09-12T01:55:18;2.10;;;1.50;;
6566;SDS011;3317;43.994;22.878;2022-09-12T01:57:51;3.43;;;1.63;;
6566;SDS011;3317;43.994;22.878;2022-09-12T02:00:22;2.03;;;1.70;;
6566;SDS011;3317;43.994;22.878;2022-09-12T02:02:51;1.63;;;1.40;;
6566;SDS011;3317;43.994;22.878;2022-09-12T02:05:24;1.70;;;1.40;;
6566;SDS011;3317;43.994;22.878;2022-09-12T02:07:59;5.77;;;1.73;;
6566;SDS011;3317;43.994;22.878;2022-09-12T02:10:31;1.93;;;1.70;;
6566;SDS011;3317;43.994;22.878;2022-09-12T02:13:04;2.50;;;1.80;;
6566;SDS011;3317;43.994;22.878;2022-09-12T02:15:39;2.87;;;1.70;;
6566;SDS011;3317;43.994;22.878;2022-09-12T02:18:11;1.73;;;1.53;;
6566;SDS011;3317;43.994;22.878;2022-09-12T02:20:42;3.37;;;1.90;;
6566;SDS011;3317;43.994;22.878;2022-09-12T02:23:13;3.43;;;1.50;;
6566;SDS011;3317;43.994;22.878;2022-09-12T02:25:46;3.07;;;1.97;;
6566;SDS011;3317;43.994;22.878;2022-09-12T02:28:17;3.20;;;1.97;;
6566;SDS011;3317;43.994;22.878;2022-09-12T02:30:49;4.30;;;1.87;;
6566;SDS011;3317;43.994;22.878;2022-09-12T02:33:26;3.03;;;1.97;;
6566;SDS011;3317;43.994;22.878;2022-09-12T02:35:59;2.13;;;1.70;;
6566;SDS011;3317;43.994;22.878;2022-09-12T02:38:35;2.73;;;1.80;;
6566;SDS011;3317;43.994;22.878;2022-09-12T02:41:08;1.83;;;1.60;;
6566;SDS011;3317;43.994;22.878;2022-09-12T02:43:36;3.80;;;1.70;;
6566;SDS011;3317;43.994;22.878;2022-09-12T02:46:03;6.10;;;2.23;;
6566;SDS011;3317;43.994;22.878;2022-09-12T02:48:35;5.43;;;2.97;;
6566;SDS011;3317;43.994;22.878;2022-09-12T02:51:07;4.00;;;2.60;;
6566;SDS011;3317;43.994;22.878;2022-09-12T02:53:34;2.90;;;2.43;;
6566;SDS011;3317;43.994;22.878;2022-09-12T02:56:02;3.67;;;2.63;;
6566;SDS011;3317;43.994;22.878;2022-09-12T02:58:33;3.53;;;2.73;;
6566;SDS011;3317;43.994;22.878;2022-09-12T03:01:02;3.63;;;2.37;;
6566;SDS011;3317;43.994;22.878;2022-09-12T03:03:44;3.87;;;2.30;;
6566;SDS011;3317;43.994;22.878;2022-09-12T03:06:24;3.07;;;2.17;;
6566;SDS011;3317;43.994;22.878;2022-09-12T03:09:04;2.40;;;2.03;;
6566;SDS011;3317;43.994;22.878;2022-09-12T03:11:44;4.40;;;2.30;;
6566;SDS011;3317;43.994;22.878;2022-09-12T03:14:34;2.70;;;2.10;;
6566;SDS011;3317;43.994;22.878;2022-09-12T03:17:18;2.60;;;2.20;;
6566;SDS011;3317;43.994;22.878;2022-09-12T03:19:56;3.87;;;2.30;;
6566;SDS011;3317;43.994;22.878;2022-09-12T03:22:29;2.70;;;2.43;;
6566;SDS011;3317;43.994;22.878;2022-09-12T03:25:05;4.90;;;2.60;;
6566;SDS011;3317;43.994;22.878;2022-09-12T03:27:41;2.20;;;2.00;;
6566;SDS011;3317;43.994;22.878;2022-09-12T03:30:12;3.03;;;2.50;;
6566;SDS011;3317;43.994;22.878;2022-09-12T03:32:39;3.60;;;2.70;;
6566;SDS011;3317;43.994;22.878;2022-09-12T03:35:11;4.17;;;2.50;;
6566;SDS011;3317;43.994;22.878;2022-09-12T03:37:39;3.00;;;2.70;;
6566;SDS011;3317;43.994;22.878;2022-09-12T03:40:07;2.87;;;2.67;;
6566;SDS011;3317;43.994;22.878;2022-09-12T03:42:35;2.57;;;2.30;;
6566;SDS011;3317;43.994;22.878;2022-09-12T03:45:03;3.07;;;2.40;;
6566;SDS011;3317;43.994;22.878;2022-09-12T03:47:31;3.53;;;2.70;;
6566;SDS011;3317;43.994;22.878;2022-09-12T03:49:58;8.50;;;3.30;;
6566;SDS011;3317;43.994;22.878;2022-09-12T03:52:26;3.83;;;3.00;;
6566;SDS011;3317;43.994;22.878;2022-09-12T03:54:54;2.70;;;2.43;;
6566;SDS011;3317;43.994;22.878;2022-09-12T03:57:21;3.20;;;2.90;;
6566;SDS011;3317;43.994;22.878;2022-09-12T03:59:48;3.40;;;2.70;;
6566;SDS011;3317;43.994;22.878;2022-09-12T04:02:15;3.63;;;2.80;;
6566;SDS011;3317;43.994;22.878;2022-09-12T04:04:42;3.70;;;2.90;;
6566;SDS011;3317;43.994;22.878;2022-09-12T04:07:13;5.63;;;3.03;;
6566;SDS011;3317;43.994;22.878;2022-09-12T04:09:41;5.03;;;2.70;;
6566;SDS011;3317;43.994;22.878;2022-09-12T04:12:08;3.70;;;3.07;;
6566;SDS011;3317;43.994;22.878;2022-09-12T04:14:36;3.40;;;3.10;;
6566;SDS011;3317;43.994;22.878;2022-09-12T04:17:04;5.87;;;3.47;;
6566;SDS011;3317;43.994;22.878;2022-09-12T04:19:31;3.30;;;3.00;;
6566;SDS011;3317;43.994;22.878;2022-09-12T04:21:58;3.53;;;3.23;;
6566;SDS011;3317;43.994;22.878;2022-09-12T04:24:25;4.67;;;3.80;;
6566;SDS011;3317;43.994;22.878;2022-09-12T04:26:53;6.00;;;3.60;;
6566;SDS011;3317;43.994;22.878;2022-09-12T04:29:20;5.77;;;3.33;;
6566;SDS011;3317;43.994;22.878;2022-09-12T04:31:47;5.07;;;3.23;;
6566;SDS011;3317;43.994;22.878;2022-09-12T04:34:14;5.63;;;3.10;;
6566;SDS011;3317;43.994;22.878;2022-09-12T04:36:42;5.00;;;3.43;;
6566;SDS011;3317;43.994;22.878;2022-09-12T04:39:09;5.20;;;3.10;;
6566;SDS011;3317;43.994;22.878;2022-09-12T04:41:38;5.17;;;3.73;;
6566;SDS011;3317;43.994;22.878;2022-09-12T04:44:09;3.83;;;3.40;;
6566;SDS011;3317;43.994;22.878;2022-09-12T04:46:38;4.70;;;3.60;;
6566;SDS011;3317;43.994;22.878;2022-09-12T04:49:07;3.73;;;3.43;;
6566;SDS011;3317;43.994;22.878;2022-09-12T04:51:35;4.20;;;3.80;;
6566;SDS011;3317;43.994;22.878;2022-09-12T04:54:05;4.57;;;3.47;;
6566;SDS011;3317;43.994;22.878;2022-09-12T04:56:36;3.80;;;3.50;;
6566;SDS011;3317;43.994;22.878;2022-09-12T04:59:03;3.83;;;3.40;;
6566;SDS011;3317;43.994;22.878;2022-09-12T05:01:32;3.67;;;3.27;;
6566;SDS011;3317;43.994;22.878;2022-09-12T05:04:00;8.20;;;4.70;;
6566;SDS011;3317;43.994;22.878;2022-09-12T05:06:28;4.00;;;3.60;;
6566;SDS011;3317;43.994;22.878;2022-09-12T05:08:56;5.03;;;3.70;;
6566;SDS011;3317;43.994;22.878;2022-09-12T05:11:24;3.80;;;3.50;;
6566;SDS011;3317;43.994;22.878;2022-09-12T05:13:53;6.10;;;4.30;;
6566;SDS011;3317;43.994;22.878;2022-09-12T05:16:21;4.83;;;3.83;;
6566;SDS011;3317;43.994;22.878;2022-09-12T05:18:51;3.97;;;3.27;;
6566;SDS011;3317;43.994;22.878;2022-09-12T05:21:19;6.67;;;3.37;;
6566;SDS011;3317;43.994;22.878;2022-09-12T05:23:49;5.03;;;3.60;;
6566;SDS011;3317;43.994;22.878;2022-09-12T05:26:17;5.60;;;3.77;;
6566;SDS011;3317;43.994;22.878;2022-09-12T05:28:45;4.70;;;3.83;;
6566;SDS011;3317;43.994;22.878;2022-09-12T05:31:14;4.50;;;3.30;;
6566;SDS011;3317;43.994;22.878;2022-09-12T05:33:43;4.73;;;4.10;;
6566;SDS011;3317;43.994;22.878;2022-09-12T05:36:15;10.37;;;6.40;;
6566;SDS011;3317;43.994;22.878;2022-09-12T05:38:43;5.83;;;4.40;;
6566;SDS011;3317;43.994;22.878;2022-09-12T05:41:11;4.20;;;3.30;;
6566;SDS011;3317;43.994;22.878;2022-09-12T05:43:40;5.20;;;3.67;;
6566;SDS011;3317;43.994;22.878;2022-09-12T05:46:11;12.20;;;4.53;;
6566;SDS011;3317;43.994;22.878;2022-09-12T05:48:40;4.70;;;4.17;;
6566;SDS011;3317;43.994;22.878;2022-09-12T05:51:09;4.63;;;3.93;;
6566;SDS011;3317;43.994;22.878;2022-09-12T05:53:40;4.40;;;3.40;;
6566;SDS011;3317;43.994;22.878;2022-09-12T05:56:08;4.63;;;3.63;;
6566;SDS011;3317;43.994;22.878;2022-09-12T05:58:37;3.80;;;3.40;;
6566;SDS011;3317;43.994;22.878;2022-09-12T06:01:06;3.70;;;3.40;;
6566;SDS011;3317;43.994;22.878;2022-09-12T06:03:35;4.77;;;3.90;;
6566;SDS011;3317;43.994;22.878;2022-09-12T06:06:06;4.80;;;4.30;;
6566;SDS011;3317;43.994;22.878;2022-09-12T06:08:37;5.97;;;3.70;;
6566;SDS011;3317;43.994;22.878;2022-09-12T06:11:08;6.47;;;4.37;;
6566;SDS011;3317;43.994;22.878;2022-09-12T06:13:37;7.00;;;4.10;;
6566;SDS011;3317;43.994;22.878;2022-09-12T06:16:06;3.90;;;3.60;;
6566;SDS011;3317;43.994;22.878;2022-09-12T06:18:36;7.47;;;4.00;;
6566;SDS011;3317;43.994;22.878;2022-09-12T06:21:03;5.50;;;4.10;;
6566;SDS011;3317;43.994;22.878;2022-09-12T06:23:32;5.50;;;3.93;;
6566;SDS011;3317;43.994;22.878;2022-09-12T06:26:00;8.30;;;4.70;;
6566;SDS011;3317;43.994;22.878;2022-09-12T06:28:28;5.50;;;4.07;;
6566;SDS011;3317;43.994;22.878;2022-09-12T06:31:00;5.47;;;4.73;;
6566;SDS011;3317;43.994;22.878;2022-09-12T06:33:29;5.10;;;4.57;;
6566;SDS011;3317;43.994;22.878;2022-09-12T06:36:01;6.10;;;4.40;;
6566;SDS011;3317;43.994;22.878;2022-09-12T06:38:29;4.73;;;4.30;;
6566;SDS011;3317;43.994;22.878;2022-09-12T06:40:56;6.40;;;4.60;;
6566;SDS011;3317;43.994;22.878;2022-09-12T06:43:27;10.00;;;8.13;;
6566;SDS011;3317;43.994;22.878;2022-09-12T06:45:54;5.60;;;4.30;;
6566;SDS011;3317;43.994;22.878;2022-09-12T06:48:21;8.43;;;5.00;;
6566;SDS011;3317;43.994;22.878;2022-09-12T06:50:55;5.53;;;5.03;;
6566;SDS011;3317;43.994;22.878;2022-09-12T06:53:28;4.87;;;3.90;;
6566;SDS011;3317;43.994;22.878;2022-09-12T06:55:57;4.30;;;4.00;;
6566;SDS011;3317;43.994;22.878;2022-09-12T06:58:28;5.30;;;4.57;;
6566;SDS011;3317;43.994;22.878;2022-09-12T07:00:59;5.30;;;4.33;;
6566;SDS011;3317;43.994;22.878;2022-09-12T07:03:27;6.63;;;4.30;;
6566;SDS011;3317;43.994;22.878;2022-09-12T07:05:55;6.60;;;5.60;;
6566;SDS011;3317;43.994;22.878;2022-09-12T07:08:22;5.23;;;4.13;;
6566;SDS011;3317;43.994;22.878;2022-09-12T07:10:55;6.07;;;5.50;;
6566;SDS011;3317;43.994;22.878;2022-09-12T07:13:26;5.53;;;5.03;;
6566;SDS011;3317;43.994;22.878;2022-09-12T07:15:54;6.27;;;5.67;;
6566;SDS011;3317;43.994;22.878;2022-09-12T07:18:23;6.00;;;5.17;;
6566;SDS011;3317;43.994;22.878;2022-09-12T07:20:51;7.77;;;5.37;;
6566;SDS011;3317;43.994;22.878;2022-09-12T07:23:21;8.53;;;5.60;;
6566;SDS011;3317;43.994;22.878;2022-09-12T07:25:51;6.13;;;5.50;;
6566;SDS011;3317;43.994;22.878;2022-09-12T07:28:21;7.03;;;6.03;;
6566;SDS011;3317;43.994;22.878;2022-09-12T07:30:50;5.70;;;4.70;;
6566;SDS011;3317;43.994;22.878;2022-09-12T07:33:18;5.90;;;5.27;;
6566;SDS011;3317;43.994;22.878;2022-09-12T07:35:46;5.77;;;5.27;;
6566;SDS011;3317;43.994;22.878;2022-09-12T07:38:13;6.93;;;5.47;;
6566;SDS011;3317;43.994;22.878;2022-09-12T07:40:40;5.97;;;5.47;;
6566;SDS011;3317;43.994;22.878;2022-09-12T07:43:08;6.97;;;5.90;;
6566;SDS011;3317;43.994;22.878;2022-09-12T07:45:35;6.97;;;6.00;;
6566;SDS011;3317;43.994;22.878;2022-09-12T07:48:03;7.03;;;6.33;;
6566;SDS011;3317;43.994;22.878;2022-09-12T07:50:30;7.37;;;6.20;;
6566;SDS011;3317;43.994;22.878;2022-09-12T07:52:58;5.97;;;5.23;;
6566;SDS011;3317;43.994;22.878;2022-09-12T07:55:27;8.73;;;4.70;;
6566;SDS011;3317;43.994;22.878;2022-09-12T07:57:54;5.80;;;4.77;;
6566;SDS011;3317;43.994;22.878;2022-09-12T08:00:21;5.40;;;4.80;;
6566;SDS011;3317;43.994;22.878;2022-09-12T08:02:50;6.67;;;5.10;;
6566;SDS011;3317;43.994;22.878;2022-09-12T08:05:21;5.70;;;4.60;;
6566;SDS011;3317;43.994;22.878;2022-09-12T08:07:48;5.80;;;4.70;;
6566;SDS011;3317;43.994;22.878;2022-09-12T08:10:15;4.80;;;3.83;;
6566;SDS011;3317;43.994;22.878;2022-09-12T08:12:42;6.10;;;4.23;;
6566;SDS011;3317;43.994;22.878;2022-09-12T08:15:10;5.00;;;4.00;;
6566;SDS011;3317;43.994;22.878;2022-09-12T08:17:37;5.50;;;4.30;;
6566;SDS011;3317;43.994;22.878;2022-09-12T08:20:05;4.87;;;4.43;;
6566;SDS011;3317;43.994;22.878;2022-09-12T08:22:35;4.43;;;4.03;;
6566;SDS011;3317;43.994;22.878;2022-09-12T08:25:03;5.57;;;3.93;;
6566;SDS011;3317;43.994;22.878;2022-09-12T08:27:32;4.57;;;4.17;;
6566;SDS011;3317;43.994;22.878;2022-09-12T08:29:59;5.27;;;4.13;;
6566;SDS011;3317;43.994;22.878;2022-09-12T08:32:27;6.13;;;4.10;;
6566;SDS011;3317;43.994;22.878;2022-09-12T08:34:54;7.30;;;3.90;;
6566;SDS011;3317;43.994;22.878;2022-09-12T08:37:21;7.50;;;4.30;;
6566;SDS011;3317;43.994;22.878;2022-09-12T08:39:50;9.23;;;4.23;;
6566;SDS011;3317;43.994;22.878;2022-09-12T08:42:30;5.00;;;3.70;;
6566;SDS011;3317;43.994;22.878;2022-09-12T08:45:12;3.40;;;3.10;;
6566;SDS011;3317;43.994;22.878;2022-09-12T08:47:45;4.13;;;3.53;;
6566;SDS011;3317;43.994;22.878;2022-09-12T08:50:15;3.47;;;3.17;;
6566;SDS011;3317;43.994;22.878;2022-09-12T08:52:49;5.27;;;3.20;;
6566;SDS011;3317;43.994;22.878;2022-09-12T08:55:26;5.37;;;3.47;;
6566;SDS011;3317;43.994;22.878;2022-09-12T08:57:57;3.40;;;3.10;;
6566;SDS011;3317;43.994;22.878;2022-09-12T09:00:28;5.60;;;3.20;;
6566;SDS011;3317;43.994;22.878;2022-09-12T09:03:24;9.40;;;3.93;;
6566;SDS011;3317;43.994;22.878;2022-09-12T09:06:09;3.90;;;3.50;;
6566;SDS011;3317;43.994;22.878;2022-09-12T09:08:54;5.63;;;3.67;;
6566;SDS011;3317;43.994;22.878;2022-09-12T09:11:31;4.10;;;3.70;;
6566;SDS011;3317;43.994;22.878;2022-09-12T09:14:10;6.50;;;4.70;;
6566;SDS011;3317;43.994;22.878;2022-09-12T09:17:07;6.87;;;4.57;;
6566;SDS011;3317;43.994;22.878;2022-09-12T09:19:38;8.07;;;4.50;;
6566;SDS011;3317;43.994;22.878;2022-09-12T09:22:15;5.90;;;4.10;;
6566;SDS011;3317;43.994;22.878;2022-09-12T09:24:49;4.93;;;4.53;;
6566;SDS011;3317;43.994;22.878;2022-09-12T09:27:23;6.00;;;4.73;;
6566;SDS011;3317;43.994;22.878;2022-09-12T09:29:57;5.17;;;4.67;;
6566;SDS011;3317;43.994;22.878;2022-09-12T09:32:25;5.67;;;5.17;;
6566;SDS011;3317;43.994;22.878;2022-09-12T09:34:53;6.20;;;5.20;;
6566;SDS011;3317;43.994;22.878;2022-09-12T09:37:23;8.47;;;5.17;;
6566;SDS011;3317;43.994;22.878;2022-09-12T09:39:59;7.47;;;5.50;;
6566;SDS011;3317;43.994;22.878;2022-09-12T09:42:39;9.37;;;5.70;;
6566;SDS011;3317;43.994;22.878;2022-09-12T09:45:12;5.77;;;5.27;;
6566;SDS011;3317;43.994;22.878;2022-09-12T09:47:43;8.27;;;5.37;;
6566;SDS011;3317;43.994;22.878;2022-09-12T09:50:13;6.57;;;5.87;;
6566;SDS011;3317;43.994;22.878;2022-09-12T09:52:42;6.77;;;6.17;;
6566;SDS011;3317;43.994;22.878;2022-09-12T09:55:11;6.37;;;5.77;;
6566;SDS011;3317;43.994;22.878;2022-09-12T09:57:45;10.80;;;5.37;;
6566;SDS011;3317;43.994;22.878;2022-09-12T10:00:19;5.80;;;5.20;;
6566;SDS011;3317;43.994;22.878;2022-09-12T10:02:57;6.00;;;5.40;;
6566;SDS011;3317;43.994;22.878;2022-09-12T10:05:27;6.23;;;5.63;;
6566;SDS011;3317;43.994;22.878;2022-09-12T10:07:55;6.13;;;5.50;;
6566;SDS011;3317;43.994;22.878;2022-09-12T10:10:23;5.83;;;5.33;;
6566;SDS011;3317;43.994;22.878;2022-09-12T10:12:52;6.73;;;5.40;;
6566;SDS011;3317;43.994;22.878;2022-09-12T10:15:33;7.67;;;5.53;;
6566;SDS011;3317;43.994;22.878;2022-09-12T10:18:02;8.10;;;5.30;;
6566;SDS011;3317;43.994;22.878;2022-09-12T10:20:31;7.10;;;4.93;;
6566;SDS011;3317;43.994;22.878;2022-09-12T10:23:01;4.47;;;3.60;;
6566;SDS011;3317;43.994;22.878;2022-09-12T10:25:45;4.73;;;4.27;;
6566;SDS011;3317;43.994;22.878;2022-09-12T10:28:20;4.80;;;4.30;;
6566;SDS011;3317;43.994;22.878;2022-09-12T10:30:57;5.53;;;3.03;;
6566;SDS011;3317;43.994;22.878;2022-09-12T10:33:25;4.27;;;2.90;;
6566;SDS011;3317;43.994;22.878;2022-09-12T10:35:53;3.97;;;2.90;;
6566;SDS011;3317;43.994;22.878;2022-09-12T10:38:22;6.00;;;2.90;;
6566;SDS011;3317;43.994;22.878;2022-09-12T10:40:56;5.80;;;2.40;;
6566;SDS011;3317;43.994;22.878;2022-09-12T10:43:28;3.50;;;2.07;;
6566;SDS011;3317;43.994;22.878;2022-09-12T10:48:50;2.30;;;2.00;;
6566;SDS011;3317;43.994;22.878;2022-09-12T10:51:37;3.67;;;2.23;;
6566;SDS011;3317;43.994;22.878;2022-09-12T10:54:06;5.50;;;2.13;;
6566;SDS011;3317;43.994;22.878;2022-09-12T10:56:37;2.90;;;1.83;;
6566;SDS011;3317;43.994;22.878;2022-09-12T10:59:19;2.90;;;2.00;;
6566;SDS011;3317;43.994;22.878;2022-09-12T11:01:58;2.27;;;2.07;;
6566;SDS011;3317;43.994;22.878;2022-09-12T11:04:28;4.03;;;2.10;;
6566;SDS011;3317;43.994;22.878;2022-09-12T11:07:17;3.20;;;1.90;;
6566;SDS011;3317;43.994;22.878;2022-09-12T11:09:57;2.27;;;1.93;;
6566;SDS011;3317;43.994;22.878;2022-09-12T11:12:36;3.20;;;2.00;;
6566;SDS011;3317;43.994;22.878;2022-09-12T11:15:11;5.50;;;1.90;;
6566;SDS011;3317;43.994;22.878;2022-09-12T11:17:53;4.10;;;1.73;;
6566;SDS011;3317;43.994;22.878;2022-09-12T11:23:29;3.70;;;1.90;;
6566;SDS011;3317;43.994;22.878;2022-09-12T11:26:13;6.70;;;2.50;;
6566;SDS011;3317;43.994;22.878;2022-09-12T11:28:52;3.73;;;1.80;;
6566;SDS011;3317;43.994;22.878;2022-09-12T11:31:41;7.20;;;1.90;;
6566;SDS011;3317;43.994;22.878;2022-09-12T11:34:20;5.40;;;2.17;;
6566;SDS011;3317;43.994;22.878;2022-09-12T11:36:57;3.33;;;2.00;;
6566;SDS011;3317;43.994;22.878;2022-09-12T11:39:41;4.47;;;1.80;;
6566;SDS011;3317;43.994;22.878;2022-09-12T11:42:15;3.93;;;2.10;;
6566;SDS011;3317;43.994;22.878;2022-09-12T11:44:50;4.20;;;2.03;;
6566;SDS011;3317;43.994;22.878;2022-09-12T11:47:26;3.83;;;2.20;;
6566;SDS011;3317;43.994;22.878;2022-09-12T11:50:00;4.17;;;2.13;;
6566;SDS011;3317;43.994;22.878;2022-09-12T11:52:34;4.40;;;3.40;;
6566;SDS011;3317;43.994;22.878;2022-09-12T11:55:05;4.77;;;3.00;;
6566;SDS011;3317;43.994;22.878;2022-09-12T11:57:38;3.10;;;2.77;;
6566;SDS011;3317;43.994;22.878;2022-09-12T12:00:13;3.43;;;2.50;;
6566;SDS011;3317;43.994;22.878;2022-09-12T12:02:47;2.80;;;2.53;;
6566;SDS011;3317;43.994;22.878;2022-09-12T12:05:21;3.10;;;2.80;;
6566;SDS011;3317;43.994;22.878;2022-09-12T12:08:05;5.87;;;3.50;;
6566;SDS011;3317;43.994;22.878;2022-09-12T12:10:34;4.63;;;4.23;;
6566;SDS011;3317;43.994;22.878;2022-09-12T12:13:04;4.10;;;3.70;;
6566;SDS011;3317;43.994;22.878;2022-09-12T12:15:34;6.33;;;3.60;;
6566;SDS011;3317;43.994;22.878;2022-09-12T12:18:05;8.20;;;3.67;;
6566;SDS011;3317;43.994;22.878;2022-09-12T12:20:34;4.47;;;4.07;;
6566;SDS011;3317;43.994;22.878;2022-09-12T12:23:01;4.10;;;3.70;;
6566;SDS011;3317;43.994;22.878;2022-09-12T12:25:39;6.07;;;4.43;;
6566;SDS011;3317;43.994;22.878;2022-09-12T12:31:17;5.10;;;4.60;;
6566;SDS011;3317;43.994;22.878;2022-09-12T12:36:48;8.90;;;3.93;;
6566;SDS011;3317;43.994;22.878;2022-09-12T12:51:32;9.60;;;5.70;;
6566;SDS011;3317;43.994;22.878;2022-09-12T12:54:03;6.40;;;5.80;;
6566;SDS011;3317;43.994;22.878;2022-09-12T12:56:59;6.13;;;5.10;;
6566;SDS011;3317;43.994;22.878;2022-09-12T12:59:27;7.87;;;6.10;;
6566;SDS011;3317;43.994;22.878;2022-09-12T13:01:55;7.13;;;6.40;;
6566;SDS011;3317;43.994;22.878;2022-09-12T13:04:31;7.03;;;6.27;;
6566;SDS011;3317;43.994;22.878;2022-09-12T13:07:01;7.87;;;5.60;;
6566;SDS011;3317;43.994;22.878;2022-09-12T13:09:31;9.70;;;5.67;;
6566;SDS011;3317;43.994;22.878;2022-09-12T13:12:04;6.87;;;6.20;;
6566;SDS011;3317;43.994;22.878;2022-09-12T13:14:35;10.47;;;5.80;;
6566;SDS011;3317;43.994;22.878;2022-09-12T13:17:14;5.07;;;4.57;;
6566;SDS011;3317;43.994;22.878;2022-09-12T13:19:45;5.50;;;4.30;;
6566;SDS011;3317;43.994;22.878;2022-09-12T13:22:15;5.60;;;3.80;;
6566;SDS011;3317;43.994;22.878;2022-09-12T13:24:42;3.40;;;3.00;;
6566;SDS011;3317;43.994;22.878;2022-09-12T13:27:16;4.50;;;3.33;;
6566;SDS011;3317;43.994;22.878;2022-09-12T13:29:44;8.30;;;3.27;;
6566;SDS011;3317;43.994;22.878;2022-09-12T13:32:11;3.67;;;2.23;;
6566;SDS011;3317;43.994;22.878;2022-09-12T13:34:42;2.00;;;1.80;;
6566;SDS011;3317;43.994;22.878;2022-09-12T13:37:28;2.20;;;2.00;;
6566;SDS011;3317;43.994;22.878;2022-09-12T13:43:08;6.60;;;2.30;;
6566;SDS011;3317;43.994;22.878;2022-09-12T13:45:39;3.30;;;1.93;;
6566;SDS011;3317;43.994;22.878;2022-09-12T13:48:09;3.30;;;2.33;;
6566;SDS011;3317;43.994;22.878;2022-09-12T13:50:45;3.30;;;2.70;;
6566;SDS011;3317;43.994;22.878;2022-09-12T13:53:18;2.50;;;2.30;;
6566;SDS011;3317;43.994;22.878;2022-09-12T13:55:50;6.53;;;2.60;;
6566;SDS011;3317;43.994;22.878;2022-09-12T13:58:19;3.80;;;2.60;;
6566;SDS011;3317;43.994;22.878;2022-09-12T14:03:32;2.90;;;2.17;;
6566;SDS011;3317;43.994;22.878;2022-09-12T14:06:21;3.90;;;2.30;;
6566;SDS011;3317;43.994;22.878;2022-09-12T14:08:50;3.00;;;2.70;;
6566;SDS011;3317;43.994;22.878;2022-09-12T14:11:21;3.33;;;2.67;;
6566;SDS011;3317;43.994;22.878;2022-09-12T14:13:51;2.77;;;2.50;;
6566;SDS011;3317;43.994;22.878;2022-09-12T14:16:19;8.37;;;2.40;;
6566;SDS011;3317;43.994;22.878;2022-09-12T14:18:51;4.87;;;2.07;;
6566;SDS011;3317;43.994;22.878;2022-09-12T14:21:23;4.30;;;2.73;;
6566;SDS011;3317;43.994;22.878;2022-09-12T14:24:02;3.53;;;2.70;;
6566;SDS011;3317;43.994;22.878;2022-09-12T14:26:32;4.77;;;2.80;;
6566;SDS011;3317;43.994;22.878;2022-09-12T14:29:03;3.37;;;2.90;;
6566;SDS011;3317;43.994;22.878;2022-09-12T14:31:32;4.27;;;2.53;;
6566;SDS011;3317;43.994;22.878;2022-09-12T14:34:07;3.73;;;2.00;;
6566;SDS011;3317;43.994;22.878;2022-09-12T14:36:39;3.10;;;2.50;;
6566;SDS011;3317;43.994;22.878;2022-09-12T14:39:18;3.07;;;2.20;;
6566;SDS011;3317;43.994;22.878;2022-09-12T14:41:48;3.97;;;2.50;;
6566;SDS011;3317;43.994;22.878;2022-09-12T14:44:18;2.93;;;2.43;;
6566;SDS011;3317;43.994;22.878;2022-09-12T14:46:48;6.13;;;2.20;;
6566;SDS011;3317;43.994;22.878;2022-09-12T14:49:17;2.00;;;1.80;;
6566;SDS011;3317;43.994;22.878;2022-09-12T14:51:53;2.50;;;2.30;;
6566;SDS011;3317;43.994;22.878;2022-09-12T14:54:35;2.77;;;2.50;;
6566;SDS011;3317;43.994;22.878;2022-09-12T14:57:04;2.43;;;2.23;;
6566;SDS011;3317;43.994;22.878;2022-09-12T14:59:36;2.40;;;2.00;;
6566;SDS011;3317;43.994;22.878;2022-09-12T15:02:16;2.93;;;2.30;;
6566;SDS011;3317;43.994;22.878;2022-09-12T15:04:48;2.53;;;2.20;;
6566;SDS011;3317;43.994;22.878;2022-09-12T15:07:20;3.33;;;2.33;;
6566;SDS011;3317;43.994;22.878;2022-09-12T15:09:59;3.67;;;2.53;;
6566;SDS011;3317;43.994;22.878;2022-09-12T15:12:29;3.07;;;2.77;;
6566;SDS011;3317;43.994;22.878;2022-09-12T15:14:57;7.43;;;4.20;;
6566;SDS011;3317;43.994;22.878;2022-09-12T15:17:27;3.30;;;2.73;;
6566;SDS011;3317;43.994;22.878;2022-09-12T15:19:54;5.20;;;2.70;;
6566;SDS011;3317;43.994;22.878;2022-09-12T15:22:21;4.90;;;2.37;;
6566;SDS011;3317;43.994;22.878;2022-09-12T15:24:50;2.87;;;2.23;;
6566;SDS011;3317;43.994;22.878;2022-09-12T15:27:19;2.60;;;2.10;;
6566;SDS011;3317;43.994;22.878;2022-09-12T15:29:49;2.77;;;2.47;;
6566;SDS011;3317;43.994;22.878;2022-09-12T15:32:21;3.30;;;2.80;;
6566;SDS011;3317;43.994;22.878;2022-09-12T15:34:49;6.33;;;2.77;;
6566;SDS011;3317;43.994;22.878;2022-09-12T15:37:16;3.13;;;2.83;;
6566;SDS011;3317;43.994;22.878;2022-09-12T15:39:47;3.40;;;3.10;;
6566;SDS011;3317;43.994;22.878;2022-09-12T15:42:15;3.60;;;3.30;;
6566;SDS011;3317;43.994;22.878;2022-09-12T15:44:51;3.50;;;3.07;;
6566;SDS011;3317;43.994;22.878;2022-09-12T15:47:18;4.60;;;3.50;;
6566;SDS011;3317;43.994;22.878;2022-09-12T15:49:46;4.10;;;3.50;;
6566;SDS011;3317;43.994;22.878;2022-09-12T15:52:14;6.57;;;4.37;;
6566;SDS011;3317;43.994;22.878;2022-09-12T15:54:42;3.70;;;3.00;;
6566;SDS011;3317;43.994;22.878;2022-09-12T15:57:09;3.50;;;3.20;;